DANE POGODOWE

WCZORAJ
Time Temp. Dewp. Hum. Kierunek Prędkość W Wind gust Bar. 1h Prec. 24h Prec.
00:05 7.2 6.1 93 256 2.8 4.2 1023.8 0.0000 0.0000
00:15 7.3 6.2 93 255 2.5 3.9 1023.7 0.0000 0.0000
00:25 7.4 6.3 93 261 2.8 4.7 1023.6 0.0000 0.0000
00:34 7.5 6.4 93 256 2.8 4.7 1023.7 0.0000 0.0000
00:55 7.6 6.5 93 261 2.5 4.2 1023.6 0.0000 0.0000
01:05 7.7 6.6 93 262 2.5 3.6 1023.5 0.0000 0.0000
01:16 7.8 6.7 93 255 2.5 4.4 1023.5 0.0000 0.0000
01:25 7.8 6.7 93 261 2.2 4.2 1023.5 0.0000 0.0000
01:35 7.8 6.7 93 258 1.9 3.1 1023.4 0.1010 0.1000
01:45 7.8 6.7 93 255 1.9 3.3 1023.4 0.1010 0.1000
01:56 7.7 6.8 94 246 1.7 2.8 1023.3 0.1010 0.1000
02:06 7.6 6.7 94 248 1.9 3.3 1023.2 0.1010 0.1000
02:15 7.6 6.9 95 254 1.9 3.1 1023.1 0.1010 0.1000
02:26 7.5 6.8 95 257 2.2 4.7 1022.9 0.2020 0.2000
02:36 7.5 6.9 96 256 2.5 5 1022.8 0.1010 0.2000
02:46 7.5 6.9 96 259 2.2 3.6 1022.8 0.2020 0.3000
02:50 7.5 6.9 96 255 2.5 3.9 1022.8 0.3030 0.4000
03:00 7.5 6.9 96 260 2.2 3.9 1022.8 0.3030 0.4000
03:10 7.5 7.1 97 254 1.7 3.1 1022.6 0.4040 0.5000
03:19 7.5 7.1 97 261 1.7 3.1 1022.6 0.4040 0.6000
03:30 7.5 7.1 97 270 1.9 3.1 1022.6 0.6060 0.8000
03:40 7.5 7.1 97 270 1.7 3.6 1022.4 0.7070 1.0000
03:50 7.5 7.1 97 257 1.7 2.5 1022.3 0.8080 1.2000
04:00 7.5 7.2 98 255 1.7 2.8 1022.2 0.9090 1.4000
04:10 7.6 7.3 98 261 1.7 3.1 1022.2 1.0100 1.6000
04:20 7.6 7.3 98 257 1.7 3.1 1022.1 1.2120 1.9000
04:30 7.7 7.4 98 249 1.9 3.6 1022 1.2120 2.1000
04:41 7.8 7.5 98 245 1.7 3.1 1021.9 1.1110 2.3000
04:50 7.8 7.7 99 246 1.9 3.3 1021.9 1.2120 2.5000
05:00 7.9 7.8 99 250 1.9 3.3 1021.9 1.1110 2.6000
05:10 8 7.9 99 252 1.7 4.2 1022 1.1110 2.8000
05:21 8 7.9 99 257 1.7 2.8 1022 0.9090 2.9000
05:31 8.1 8 99 245 1.7 3.9 1021.9 0.9090 3.1000
05:40 8.2 8.1 99 248 1.4 2.8 1021.8 0.9090 3.3000
05:51 8.2 8.1 99 253 1.7 3.1 1021.8 0.9090 3.4000
06:01 8.3 8.2 99 246 1.7 3.6 1021.7 0.8080 3.5000
06:11 8.3 8.2 99 246 2.5 5.6 1021.6 0.8080 3.6000
06:21 8.4 8.3 99 244 2.8 5.6 1021.6 0.8080 3.7000
06:31 8.5 8.4 99 243 2.2 3.9 1021.5 0.5050 3.8000
06:41 8.6 8.5 99 255 2.8 5.6 1021.5 0.6060 3.9000
06:51 8.6 8.5 99 243 3.1 4.2 1021.5 0.5050 3.9000
07:02 8.7 8.6 99 248 3.3 5 1021.6 0.4040 3.9000
07:12 8.8 8.7 99 240 5 7.2 1021.5 0.5050 4.1000
07:21 8.9 8.8 99 238 5.6 9.4 1021.5 0.5050 4.2000
07:31 9 8.9 99 243 6.1 8.9 1021.5 0.3030 4.2000
07:42 9.1 9 99 240 6.7 11.9 1021.5 0.4040 4.3000
07:52 9.3 9.2 99 240 6.4 10.3 1021.5 0.4040 4.3000
08:02 9.3 9.2 99 244 6.7 10.8 1021.5 0.2020 4.3000
08:12 9.4 9.3 99 242 6.4 12.8 1021.6 0.1010 4.3000
08:22 9.6 9.5 99 246 4.7 8.9 1021.6 0.1010 4.3000
08:32 9.7 9.6 99 251 4.7 7.8 1021.7 0.0000 4.3000
08:42 9.9 9.8 99 257 4.2 6.4 1021.7 0.0000 4.3000
08:53 10 9.7 98 252 4.2 8.6 1021.8 0.0000 4.3000
09:02 10.1 9.8 98 243 4.2 9.2 1021.8 0.0000 4.3000
09:12 10.3 10 98 257 3.9 7.5 1021.9 0.0000 4.3000
09:23 10.4 10.1 98 258 3.6 6.9 1021.8 0.0000 4.3000
09:33 10.7 10.4 98 266 5.3 6.7 1021.9 0.0000 4.3000
09:43 10.9 10.4 97 265 3.9 6.7 1022 0.0000 4.3000
09:53 11 10.5 97 256 3.9 6.1 1022 0.0000 4.3000
10:03 11.1 10.6 97 256 3.9 6.1 1022 0.0000 4.3000
10:13 11.2 10.6 96 256 3.9 6.1 1021.9 0.0000 4.3000
10:23 11.4 10.8 96 0 0 1021.8 0.0000 4.3000
10:34 11.6 11 96 0 0 1021.8 0.0000 4.3000
10:46 11.9 11.3 96 259 7.2 11.1 1021.9 0.0000 4.3000
10:57 12.3 11.5 95 247 5 8.6 1021.8 0.0000 4.3000
11:01 12.4 11.6 95 249 5.3 11.7 1021.9 0.0000 4.3000
11:10 12.7 11.8 94 248 5.3 10.3 1022 0.0000 4.3000
11:21 12.8 11.7 93 240 5.3 9.4 1021.9 0.0000 4.3000
11:31 12.9 11.6 92 238 5.3 10 1022 0.0000 4.3000
11:41 13 11.6 91 245 5.6 11.9 1021.9 0.0000 4.3000
11:51 13 11.7 92 255 5.6 9.2 1021.9 0.0000 4.3000
12:01 13.1 11.7 91 256 5.6 10 1022 0.0000 4.3000
12:13 13.2 11.8 91 235 4.7 11.7 1022 0.0000 4.3000
12:23 13.3 11.7 90 263 5.6 11.7 1022 0.0000 4.3000
12:32 13.5 11.9 90 253 5 11.1 1021.9 0.0000 4.3000
12:43 13.7 11.9 89 277 4.2 9.2 1021.8 0.0000 4.3000
12:53 13.9 11.9 88 252 4.4 11.4 1021.9 0.0000 4.3000
13:03 13.9 11.8 87 249 4.4 8.3 1021.8 0.0000 4.3000
13:13 13.9 11.8 87 251 4.7 9.4 1021.7 0.0000 4.3000
13:20 13.9 11.8 87 301 5.8 6.7 1021.8 0.0000 4.3000
13:35 13.6 11.8 89 239 4.7 8.3 1021.9 0.2020 4.5000
13:45 13.5 11.9 90 250 4.7 8.9 1021.9 0.2020 4.5000
13:55 13.4 12 91 254 5.8 10.8 1021.8 0.2020 4.5000
14:05 13.4 12 91 255 5.6 8.9 1021.8 0.2020 4.5000
14:15 13.4 12 91 252 5.6 10.8 1021.9 0.2020 4.5000
14:25 13.4 11.8 90 259 5.3 8.6 1022 0.0000 4.5000
14:37 13.4 11.8 90 257 5.8 6.4 1022 0.0000 4.5000
14:41 13.4 12 91 249 5 9.7 1022 0.0000 4.5000
14:51 13.4 12 91 263 5.3 10.6 1022.1 0.1010 4.6000
15:08 13.3 11.9 91 270 4.4 9.2 1022.2 0.1010 4.6000
15:16 13.3 11.9 91 263 5.6 11.4 1022.2 0.2020 4.7000
15:26 13.2 11.8 91 258 5.6 9.7 1022.2 0.2020 4.7000
15:36 13.1 11.7 91 258 5.8 10 1022.2 0.2020 4.7000
15:47 13.1 11.7 91 261 5.8 9.2 1022.2 0.2020 4.7000
15:56 13.1 11.7 91 255 5.3 9.4 1022.3 0.1010 4.7000
16:06 13.1 11.5 90 251 4.7 7.8 1022.3 0.1010 4.7000
16:17 13.1 11.5 90 260 5 8.3 1022.6 0.0000 4.7000
16:27 13 11.4 90 252 4.7 8.3 1022.7 0.0000 4.7000
16:31 13 11.6 91 248 5 8.3 1022.7 0.0000 4.7000
16:41 13 11.6 91 251 5 9.4 1022.7 0.0000 4.7000
16:57 13 11.4 90 265 5.6 8.1 1022.8 0.0000 4.7000
17:07 13 11.4 90 257 5.8 11.4 1022.8 0.0000 4.7000
17:17 13 11.4 90 259 5.6 8.6 1022.8 0.0000 4.7000
17:27 13 11.4 90 259 5.3 9.7 1022.8 0.0000 4.7000
17:29 13 11.4 90 257 5 8.1 1023 0.0000 4.7000
17:47 13 11.4 90 259 5.6 9.2 1023.2 0.1010 4.8000
18:08 13 11.4 90 253 4.7 8.3 1023.4 0.2020 4.9000
18:11 13 11.6 91 247 4.4 8.3 1023.4 0.3030 5.1000
18:21 12.9 11.5 91 251 4.2 6.7 1023.5 0.3030 5.1000
18:31 12.8 11.5 92 248 3.9 6.9 1023.5 0.3030 5.1000
18:42 12.8 11.5 92 251 5 8.1 1023.5 0.3030 5.1000
18:52 12.8 11.4 91 252 4.4 7.2 1023.5 0.2020 5.1000
19:01 12.8 11.4 91 250 4.4 6.4 1023.5 0.1010 5.1000
19:12 12.8 11.4 91 252 4.7 8.1 1023.5 0.0000 5.1000
19:22 12.7 11.3 91 257 4.4 6.9 1023.6 0.0000 5.1000
19:32 12.7 11.3 91 251 4.4 7.5 1023.6 0.0000 5.1000
19:42 12.7 11.3 91 247 4.4 6.1 1023.8 0.0000 5.1000
19:52 12.7 11.3 91 257 4.4 7.5 1024 0.0000 5.1000
20:02 12.8 11.4 91 254 4.7 7.5 1024.1 0.0000 5.1000
20:12 12.7 11.4 92 255 3.9 8.1 1024.1 0.1010 5.2000
20:23 12.7 11.4 92 257 3.9 5.8 1024.2 0.1010 5.2000
20:32 12.7 11.4 92 258 4.7 6.9 1024.3 0.1010 5.2000
20:42 12.7 11.4 92 251 3.9 5.6 1024.3 0.1010 5.2000
20:52 12.7 11.4 92 250 4.2 6.7 1024.3 0.2020 5.3000
21:03 12.8 11.5 92 246 3.9 7.2 1024.2 0.2020 5.3000
21:13 12.8 11.4 91 251 4.2 6.7 1024.4 0.1010 5.3000
21:22 12.8 11.4 91 254 4.2 5.8 1024.6 0.1010 5.3000
21:33 12.8 11.4 91 248 3.9 6.7 1024.7 0.1010 5.3000
21:43 12.9 11.5 91 247 3.9 7.5 1024.8 0.1010 5.3000
21:53 12.9 11.5 91 256 4.4 6.9 1024.8 0.0000 5.3000
22:03 12.9 11.5 91 251 4.4 6.9 1024.8 0.0000 5.3000
22:13 12.9 11.5 91 252 4.7 7.2 1024.9 0.0000 5.3000
22:23 12.9 11.5 91 249 4.4 6.7 1024.9 0.0000 5.3000
22:33 12.9 11.5 91 250 5 8.3 1024.8 0.0000 5.3000
22:44 12.9 11.5 91 248 4.4 6.7 1024.9 0.0000 5.3000
22:53 12.8 11.4 91 256 4.4 8.1 1025 0.0000 5.3000
23:03 12.8 11.4 91 251 4.4 6.4 1025.1 0.0000 5.3000
23:13 12.9 11.5 91 258 4.7 6.7 1025.2 0.0000 5.3000
23:24 12.9 11.3 90 256 5.6 8.6 1025.2 0.0000 5.3000
23:34 12.9 11.3 90 251 4.4 6.9 1025.3 0.0000 5.3000
23:43 13 11.4 90 249 4.7 7.5 1025.3 0.0000
23:54 13 11.2 89 250 4.4 7.8 1025.3 0.0000

STATYSTYKA DNIA

2020-10-30
TEMPERATURA
ŚREDNIA
11.0
MAKSIMUM
13.9
12:53
MINIMUM
7.2
00:05
CIŚNIENIE
ŚREDNIA
1022.8
MAKSIMUM
1025.3
23:34
MINIMUM
1021.5
06:31
PUNKT ROSY
ŚREDNIA
10.0
MAKSIMUM
12.0
13:55
MINIMUM
6.1
00:05
WILGOTNOŚĆ
ŚREDNIA
94
MAKSIMUM
99
04:50
MINIMUM
87
13:03
PRĘDKOŚĆ WIATRU
ŚREDNIA
4.0
MAKSIMUM
7.2
10:46
WIND GUST
ŚREDNIA
6.9
MAKSIMUM
12.8
08:12
KIERUNEK WIATRU
PREVAILING
W
79.3%
N
0.0
NE
0.0
E
0.0
SE
0.0
S
0.0
SW
20.0
W
79.3
NW
0.7
OPADY
OPADY GODZINA
1.2
OPADY DZIENNE
5.3
TEMPERATURA (°C)
MINIMUM
7.2
MAKSIMUM
13.9
ŚREDNIA
11.0
CIŚNIENIE (hpa)
MINIMUM
1021.5
MAKSIMUM
1025.3
ŚREDNIA
1022.8
DEVICE